Weatherby Lake, Missouri
Current Conditions -  °F | °C
As of 6:53 PM on Wednesday 26 Nov 2014 (Local Time) from KMCI Reporting Station
Overcast Overcast  
Wind Chill: 18°   Ceiling: 2000
Heat Index: 31°   Visibility: 10mi
Dew Point: 23°   Wind: 23mph
Humidity: 72%   Direction: 340°NNW
Pressure: 30.24"   Gusts: 30mph
Location:  39.2806°N, 94.7299°W
Report Text: KMCI 270053Z 34020G26KT 10SM OVC020 M01/M05 A3024 RMK AO2 PK WND 33028/0025 SLP247 T10061050
Loading
Personal Weather Stations






























Interactive Weather Map New forecast layout! Learn more

10-Day Weather Forecast

Advertisements
Track Severe Weather on mobile